sensor_id;sensor_type;location;lat;lon;timestamp;P1;durP1;ratioP1;P2;durP2;ratioP2
40162;SDS011;25881;47.462;19.304;2023-01-09T00:02:11;17.77;;;10.50;;
40162;SDS011;25881;47.462;19.304;2023-01-09T00:04:36;17.50;;;10.13;;
40162;SDS011;25881;47.462;19.304;2023-01-09T00:07:01;15.70;;;9.73;;
40162;SDS011;25881;47.462;19.304;2023-01-09T00:09:27;14.47;;;10.10;;
40162;SDS011;25881;47.462;19.304;2023-01-09T00:11:52;14.60;;;10.00;;
40162;SDS011;25881;47.462;19.304;2023-01-09T00:14:19;16.15;;;10.27;;
40162;SDS011;25881;47.462;19.304;2023-01-09T00:16:44;13.15;;;9.40;;
40162;SDS011;25881;47.462;19.304;2023-01-09T00:19:10;18.60;;;9.70;;
40162;SDS011;25881;47.462;19.304;2023-01-09T00:21:35;14.40;;;9.37;;
40162;SDS011;25881;47.462;19.304;2023-01-09T00:24:01;14.30;;;9.27;;
40162;SDS011;25881;47.462;19.304;2023-01-09T00:26:26;15.07;;;9.70;;
40162;SDS011;25881;47.462;19.304;2023-01-09T00:28:51;14.80;;;9.47;;
40162;SDS011;25881;47.462;19.304;2023-01-09T00:31:18;14.05;;;9.23;;
40162;SDS011;25881;47.462;19.304;2023-01-09T00:33:45;13.32;;;9.27;;
40162;SDS011;25881;47.462;19.304;2023-01-09T00:36:12;14.48;;;9.40;;
40162;SDS011;25881;47.462;19.304;2023-01-09T00:38:37;16.05;;;10.13;;
40162;SDS011;25881;47.462;19.304;2023-01-09T00:41:03;15.10;;;9.55;;
40162;SDS011;25881;47.462;19.304;2023-01-09T00:43:30;14.15;;;9.48;;
40162;SDS011;25881;47.462;19.304;2023-01-09T00:45:57;14.93;;;9.88;;
40162;SDS011;25881;47.462;19.304;2023-01-09T00:48:22;14.45;;;9.05;;
40162;SDS011;25881;47.462;19.304;2023-01-09T00:50:51;12.75;;;8.63;;
40162;SDS011;25881;47.462;19.304;2023-01-09T00:53:17;13.50;;;8.98;;
40162;SDS011;25881;47.462;19.304;2023-01-09T00:55:43;15.93;;;9.23;;
40162;SDS011;25881;47.462;19.304;2023-01-09T00:58:08;15.27;;;8.77;;
40162;SDS011;25881;47.462;19.304;2023-01-09T01:00:34;13.07;;;9.05;;
40162;SDS011;25881;47.462;19.304;2023-01-09T01:02:59;14.35;;;9.02;;
40162;SDS011;25881;47.462;19.304;2023-01-09T01:05:25;16.43;;;8.90;;
40162;SDS011;25881;47.462;19.304;2023-01-09T01:08:12;13.52;;;8.18;;
40162;SDS011;25881;47.462;19.304;2023-01-09T01:10:38;12.80;;;8.55;;
40162;SDS011;25881;47.462;19.304;2023-01-09T01:13:03;13.15;;;8.95;;
40162;SDS011;25881;47.462;19.304;2023-01-09T01:15:29;13.40;;;8.80;;
40162;SDS011;25881;47.462;19.304;2023-01-09T01:17:55;13.75;;;8.75;;
40162;SDS011;25881;47.462;19.304;2023-01-09T01:20:20;11.38;;;8.20;;
40162;SDS011;25881;47.462;19.304;2023-01-09T01:22:46;15.20;;;8.80;;
40162;SDS011;25881;47.462;19.304;2023-01-09T01:25:12;17.33;;;10.30;;
40162;SDS011;25881;47.462;19.304;2023-01-09T01:27:37;14.85;;;9.10;;
40162;SDS011;25881;47.462;19.304;2023-01-09T01:30:04;13.68;;;8.77;;
40162;SDS011;25881;47.462;19.304;2023-01-09T01:32:29;14.52;;;8.65;;
40162;SDS011;25881;47.462;19.304;2023-01-09T01:34:54;12.63;;;8.63;;
40162;SDS011;25881;47.462;19.304;2023-01-09T01:37:19;13.07;;;8.53;;
40162;SDS011;25881;47.462;19.304;2023-01-09T01:39:46;14.63;;;9.07;;
40162;SDS011;25881;47.462;19.304;2023-01-09T01:42:12;16.13;;;9.37;;
40162;SDS011;25881;47.462;19.304;2023-01-09T01:47:22;13.60;;;8.65;;
40162;SDS011;25881;47.462;19.304;2023-01-09T01:49:48;16.20;;;9.85;;
40162;SDS011;25881;47.462;19.304;2023-01-09T01:52:14;16.58;;;9.60;;
40162;SDS011;25881;47.462;19.304;2023-01-09T01:54:40;15.70;;;9.43;;
40162;SDS011;25881;47.462;19.304;2023-01-09T01:57:05;15.23;;;9.40;;
40162;SDS011;25881;47.462;19.304;2023-01-09T01:59:39;13.48;;;9.07;;
40162;SDS011;25881;47.462;19.304;2023-01-09T02:02:04;12.57;;;8.90;;
40162;SDS011;25881;47.462;19.304;2023-01-09T02:04:31;27.95;;;9.20;;
40162;SDS011;25881;47.462;19.304;2023-01-09T02:06:57;13.15;;;8.00;;
40162;SDS011;25881;47.462;19.304;2023-01-09T02:09:23;15.00;;;9.13;;
40162;SDS011;25881;47.462;19.304;2023-01-09T02:11:51;14.30;;;8.68;;
40162;SDS011;25881;47.462;19.304;2023-01-09T02:14:16;12.48;;;7.80;;
40162;SDS011;25881;47.462;19.304;2023-01-09T02:22:35;13.27;;;9.23;;
40162;SDS011;25881;47.462;19.304;2023-01-09T02:30:11;16.75;;;10.80;;
40162;SDS011;25881;47.462;19.304;2023-01-09T02:32:44;15.52;;;10.75;;
40162;SDS011;25881;47.462;19.304;2023-01-09T02:35:26;16.83;;;9.45;;
40162;SDS011;25881;47.462;19.304;2023-01-09T02:40:28;15.18;;;9.52;;
40162;SDS011;25881;47.462;19.304;2023-01-09T02:42:57;16.75;;;10.38;;
40162;SDS011;25881;47.462;19.304;2023-01-09T02:45:23;14.55;;;10.32;;
40162;SDS011;25881;47.462;19.304;2023-01-09T02:47:48;16.37;;;10.90;;
40162;SDS011;25881;47.462;19.304;2023-01-09T02:50:15;17.53;;;10.73;;
40162;SDS011;25881;47.462;19.304;2023-01-09T02:57:53;16.80;;;11.07;;
40162;SDS011;25881;47.462;19.304;2023-01-09T03:03:09;14.82;;;10.20;;
40162;SDS011;25881;47.462;19.304;2023-01-09T03:08:05;18.40;;;11.27;;
40162;SDS011;25881;47.462;19.304;2023-01-09T03:10:36;17.35;;;11.75;;
40162;SDS011;25881;47.462;19.304;2023-01-09T03:13:02;15.57;;;10.80;;
40162;SDS011;25881;47.462;19.304;2023-01-09T03:15:28;16.77;;;10.65;;
40162;SDS011;25881;47.462;19.304;2023-01-09T03:17:56;16.77;;;11.32;;
40162;SDS011;25881;47.462;19.304;2023-01-09T03:20:22;15.98;;;10.43;;
40162;SDS011;25881;47.462;19.304;2023-01-09T03:22:58;19.15;;;11.50;;
40162;SDS011;25881;47.462;19.304;2023-01-09T03:25:24;21.92;;;12.07;;
40162;SDS011;25881;47.462;19.304;2023-01-09T03:27:51;22.27;;;12.55;;
40162;SDS011;25881;47.462;19.304;2023-01-09T03:30:17;18.40;;;11.98;;
40162;SDS011;25881;47.462;19.304;2023-01-09T03:32:42;17.42;;;11.13;;
40162;SDS011;25881;47.462;19.304;2023-01-09T03:35:07;21.00;;;11.67;;
40162;SDS011;25881;47.462;19.304;2023-01-09T03:37:33;20.13;;;11.55;;
40162;SDS011;25881;47.462;19.304;2023-01-09T03:39:58;19.03;;;11.10;;
40162;SDS011;25881;47.462;19.304;2023-01-09T03:42:23;22.13;;;10.70;;
40162;SDS011;25881;47.462;19.304;2023-01-09T03:44:48;15.37;;;9.93;;
40162;SDS011;25881;47.462;19.304;2023-01-09T03:47:15;15.13;;;10.02;;
40162;SDS011;25881;47.462;19.304;2023-01-09T03:49:41;17.20;;;10.27;;
40162;SDS011;25881;47.462;19.304;2023-01-09T03:52:06;19.70;;;11.53;;
40162;SDS011;25881;47.462;19.304;2023-01-09T03:54:31;15.80;;;10.60;;
40162;SDS011;25881;47.462;19.304;2023-01-09T03:56:56;16.90;;;10.60;;
40162;SDS011;25881;47.462;19.304;2023-01-09T03:59:22;20.88;;;12.05;;
40162;SDS011;25881;47.462;19.304;2023-01-09T04:01:49;18.27;;;11.80;;
40162;SDS011;25881;47.462;19.304;2023-01-09T04:04:14;18.07;;;12.07;;
40162;SDS011;25881;47.462;19.304;2023-01-09T04:06:39;19.03;;;12.87;;
40162;SDS011;25881;47.462;19.304;2023-01-09T04:09:05;22.83;;;12.80;;
40162;SDS011;25881;47.462;19.304;2023-01-09T04:11:30;20.40;;;13.40;;
40162;SDS011;25881;47.462;19.304;2023-01-09T04:13:55;20.83;;;13.47;;
40162;SDS011;25881;47.462;19.304;2023-01-09T04:16:20;21.27;;;14.10;;
40162;SDS011;25881;47.462;19.304;2023-01-09T04:18:46;21.77;;;13.93;;
40162;SDS011;25881;47.462;19.304;2023-01-09T04:21:11;20.87;;;13.70;;
40162;SDS011;25881;47.462;19.304;2023-01-09T04:23:36;21.02;;;14.45;;
40162;SDS011;25881;47.462;19.304;2023-01-09T04:26:01;22.27;;;14.13;;
40162;SDS011;25881;47.462;19.304;2023-01-09T04:28:27;20.77;;;13.93;;
40162;SDS011;25881;47.462;19.304;2023-01-09T04:30:52;21.45;;;13.95;;
40162;SDS011;25881;47.462;19.304;2023-01-09T04:33:17;18.10;;;13.27;;
40162;SDS011;25881;47.462;19.304;2023-01-09T04:35:42;19.47;;;13.70;;
40162;SDS011;25881;47.462;19.304;2023-01-09T04:38:08;21.45;;;14.30;;
40162;SDS011;25881;47.462;19.304;2023-01-09T04:40:33;20.00;;;13.37;;
40162;SDS011;25881;47.462;19.304;2023-01-09T04:42:58;21.27;;;14.80;;
40162;SDS011;25881;47.462;19.304;2023-01-09T04:45:23;22.07;;;14.70;;
40162;SDS011;25881;47.462;19.304;2023-01-09T04:47:49;21.57;;;15.47;;
40162;SDS011;25881;47.462;19.304;2023-01-09T04:50:14;22.97;;;15.07;;
40162;SDS011;25881;47.462;19.304;2023-01-09T04:52:39;19.90;;;14.23;;
40162;SDS011;25881;47.462;19.304;2023-01-09T04:55:05;30.67;;;15.40;;
40162;SDS011;25881;47.462;19.304;2023-01-09T04:57:31;23.73;;;15.90;;
40162;SDS011;25881;47.462;19.304;2023-01-09T04:59:56;25.37;;;15.57;;
40162;SDS011;25881;47.462;19.304;2023-01-09T05:02:21;20.73;;;14.90;;
40162;SDS011;25881;47.462;19.304;2023-01-09T05:04:47;21.53;;;14.50;;
40162;SDS011;25881;47.462;19.304;2023-01-09T05:07:12;23.88;;;15.93;;
40162;SDS011;25881;47.462;19.304;2023-01-09T05:09:37;24.17;;;15.37;;
40162;SDS011;25881;47.462;19.304;2023-01-09T05:12:03;25.87;;;16.57;;
40162;SDS011;25881;47.462;19.304;2023-01-09T05:14:28;23.95;;;16.02;;
40162;SDS011;25881;47.462;19.304;2023-01-09T05:16:53;25.30;;;16.75;;
40162;SDS011;25881;47.462;19.304;2023-01-09T05:19:19;27.17;;;16.75;;
40162;SDS011;25881;47.462;19.304;2023-01-09T05:21:44;24.80;;;16.02;;
40162;SDS011;25881;47.462;19.304;2023-01-09T05:24:10;26.35;;;17.20;;
40162;SDS011;25881;47.462;19.304;2023-01-09T05:26:35;27.90;;;16.53;;
40162;SDS011;25881;47.462;19.304;2023-01-09T05:29:00;23.97;;;14.80;;
40162;SDS011;25881;47.462;19.304;2023-01-09T05:31:25;22.60;;;15.83;;
40162;SDS011;25881;47.462;19.304;2023-01-09T05:33:51;32.33;;;19.00;;
40162;SDS011;25881;47.462;19.304;2023-01-09T05:36:17;30.25;;;18.50;;
40162;SDS011;25881;47.462;19.304;2023-01-09T05:38:42;31.33;;;17.97;;
40162;SDS011;25881;47.462;19.304;2023-01-09T05:41:07;25.17;;;17.03;;
40162;SDS011;25881;47.462;19.304;2023-01-09T05:43:33;26.65;;;17.33;;
40162;SDS011;25881;47.462;19.304;2023-01-09T05:45:58;26.90;;;18.63;;
40162;SDS011;25881;47.462;19.304;2023-01-09T05:48:23;24.70;;;16.13;;
40162;SDS011;25881;47.462;19.304;2023-01-09T05:50:48;27.00;;;16.73;;
40162;SDS011;25881;47.462;19.304;2023-01-09T05:53:14;29.43;;;16.97;;
40162;SDS011;25881;47.462;19.304;2023-01-09T05:55:39;27.47;;;16.73;;
40162;SDS011;25881;47.462;19.304;2023-01-09T05:58:04;29.90;;;16.95;;
40162;SDS011;25881;47.462;19.304;2023-01-09T06:00:29;25.37;;;15.53;;
40162;SDS011;25881;47.462;19.304;2023-01-09T06:02:55;28.75;;;16.67;;
40162;SDS011;25881;47.462;19.304;2023-01-09T06:05:20;27.17;;;17.30;;
40162;SDS011;25881;47.462;19.304;2023-01-09T06:07:46;24.50;;;16.27;;
40162;SDS011;25881;47.462;19.304;2023-01-09T06:10:12;21.77;;;14.73;;
40162;SDS011;25881;47.462;19.304;2023-01-09T06:12:37;27.58;;;16.30;;
40162;SDS011;25881;47.462;19.304;2023-01-09T06:15:03;25.48;;;16.40;;
40162;SDS011;25881;47.462;19.304;2023-01-09T06:17:28;29.80;;;16.60;;
40162;SDS011;25881;47.462;19.304;2023-01-09T06:19:53;27.10;;;17.27;;
40162;SDS011;25881;47.462;19.304;2023-01-09T06:22:19;26.02;;;16.58;;
40162;SDS011;25881;47.462;19.304;2023-01-09T06:24:44;32.13;;;18.00;;
40162;SDS011;25881;47.462;19.304;2023-01-09T06:27:09;28.70;;;18.07;;
40162;SDS011;25881;47.462;19.304;2023-01-09T06:29:36;31.13;;;18.20;;
40162;SDS011;25881;47.462;19.304;2023-01-09T06:32:02;26.33;;;16.93;;
40162;SDS011;25881;47.462;19.304;2023-01-09T06:34:27;23.33;;;15.83;;
40162;SDS011;25881;47.462;19.304;2023-01-09T06:36:52;30.13;;;19.50;;
40162;SDS011;25881;47.462;19.304;2023-01-09T06:39:17;28.10;;;18.27;;
40162;SDS011;25881;47.462;19.304;2023-01-09T06:41:43;29.57;;;18.20;;
40162;SDS011;25881;47.462;19.304;2023-01-09T06:44:09;33.80;;;19.00;;
40162;SDS011;25881;47.462;19.304;2023-01-09T06:46:34;23.40;;;16.85;;
40162;SDS011;25881;47.462;19.304;2023-01-09T06:48:59;26.90;;;17.30;;
40162;SDS011;25881;47.462;19.304;2023-01-09T06:51:25;24.93;;;17.20;;
40162;SDS011;25881;47.462;19.304;2023-01-09T06:53:50;26.13;;;16.73;;
40162;SDS011;25881;47.462;19.304;2023-01-09T06:56:15;22.27;;;15.70;;
40162;SDS011;25881;47.462;19.304;2023-01-09T06:58:40;27.70;;;16.67;;
40162;SDS011;25881;47.462;19.304;2023-01-09T07:01:05;24.70;;;16.27;;
40162;SDS011;25881;47.462;19.304;2023-01-09T07:03:31;24.73;;;15.17;;
40162;SDS011;25881;47.462;19.304;2023-01-09T07:05:56;22.90;;;15.67;;
40162;SDS011;25881;47.462;19.304;2023-01-09T07:08:21;24.53;;;15.50;;
40162;SDS011;25881;47.462;19.304;2023-01-09T07:10:46;25.80;;;16.63;;
40162;SDS011;25881;47.462;19.304;2023-01-09T07:13:12;26.17;;;16.47;;
40162;SDS011;25881;47.462;19.304;2023-01-09T07:15:37;24.93;;;16.70;;
40162;SDS011;25881;47.462;19.304;2023-01-09T07:18:02;22.07;;;15.70;;
40162;SDS011;25881;47.462;19.304;2023-01-09T07:20:27;26.42;;;16.73;;
40162;SDS011;25881;47.462;19.304;2023-01-09T07:22:53;24.33;;;16.20;;
40162;SDS011;25881;47.462;19.304;2023-01-09T07:25:18;28.77;;;17.50;;
40162;SDS011;25881;47.462;19.304;2023-01-09T07:27:44;24.42;;;17.38;;
40162;SDS011;25881;47.462;19.304;2023-01-09T07:30:09;28.60;;;17.30;;
40162;SDS011;25881;47.462;19.304;2023-01-09T07:32:35;25.35;;;16.90;;
40162;SDS011;25881;47.462;19.304;2023-01-09T07:35:02;26.60;;;16.85;;
40162;SDS011;25881;47.462;19.304;2023-01-09T07:37:27;25.85;;;16.23;;
40162;SDS011;25881;47.462;19.304;2023-01-09T07:39:54;24.40;;;16.30;;
40162;SDS011;25881;47.462;19.304;2023-01-09T07:42:19;27.63;;;17.75;;
40162;SDS011;25881;47.462;19.304;2023-01-09T07:44:44;32.65;;;20.30;;
40162;SDS011;25881;47.462;19.304;2023-01-09T07:47:10;27.97;;;18.43;;
40162;SDS011;25881;47.462;19.304;2023-01-09T07:49:35;27.83;;;19.70;;
40162;SDS011;25881;47.462;19.304;2023-01-09T07:52:00;30.33;;;20.17;;
40162;SDS011;25881;47.462;19.304;2023-01-09T07:54:25;29.33;;;18.23;;
40162;SDS011;25881;47.462;19.304;2023-01-09T07:56:51;26.60;;;18.47;;
40162;SDS011;25881;47.462;19.304;2023-01-09T07:59:16;24.73;;;17.52;;
40162;SDS011;25881;47.462;19.304;2023-01-09T08:01:41;27.25;;;17.25;;
40162;SDS011;25881;47.462;19.304;2023-01-09T08:04:07;25.20;;;17.45;;
40162;SDS011;25881;47.462;19.304;2023-01-09T08:06:32;25.47;;;18.20;;
40162;SDS011;25881;47.462;19.304;2023-01-09T08:08:57;26.07;;;17.43;;
40162;SDS011;25881;47.462;19.304;2023-01-09T08:11:23;24.77;;;17.17;;
40162;SDS011;25881;47.462;19.304;2023-01-09T08:13:48;24.92;;;16.63;;
40162;SDS011;25881;47.462;19.304;2023-01-09T08:16:13;23.63;;;16.55;;
40162;SDS011;25881;47.462;19.304;2023-01-09T08:18:38;25.13;;;16.92;;
40162;SDS011;25881;47.462;19.304;2023-01-09T08:21:04;24.20;;;16.13;;
40162;SDS011;25881;47.462;19.304;2023-01-09T08:23:29;23.90;;;16.15;;
40162;SDS011;25881;47.462;19.304;2023-01-09T08:25:54;23.83;;;16.03;;
40162;SDS011;25881;47.462;19.304;2023-01-09T08:28:19;23.77;;;15.60;;
40162;SDS011;25881;47.462;19.304;2023-01-09T08:30:45;20.97;;;15.70;;
40162;SDS011;25881;47.462;19.304;2023-01-09T08:33:10;23.88;;;16.67;;
40162;SDS011;25881;47.462;19.304;2023-01-09T08:35:36;25.53;;;17.00;;
40162;SDS011;25881;47.462;19.304;2023-01-09T08:38:02;24.85;;;16.95;;
40162;SDS011;25881;47.462;19.304;2023-01-09T08:40:27;25.80;;;17.25;;
40162;SDS011;25881;47.462;19.304;2023-01-09T08:42:52;24.53;;;17.17;;
40162;SDS011;25881;47.462;19.304;2023-01-09T08:45:36;24.45;;;17.48;;
40162;SDS011;25881;47.462;19.304;2023-01-09T08:48:20;25.70;;;17.95;;
40162;SDS011;25881;47.462;19.304;2023-01-09T08:50:45;28.63;;;18.80;;
40162;SDS011;25881;47.462;19.304;2023-01-09T08:53:10;25.67;;;17.42;;
40162;SDS011;25881;47.462;19.304;2023-01-09T08:55:36;28.75;;;19.45;;
40162;SDS011;25881;47.462;19.304;2023-01-09T08:58:01;28.47;;;18.13;;
40162;SDS011;25881;47.462;19.304;2023-01-09T09:00:26;28.08;;;17.92;;
40162;SDS011;25881;47.462;19.304;2023-01-09T09:02:52;27.00;;;18.95;;
40162;SDS011;25881;47.462;19.304;2023-01-09T09:05:18;38.75;;;23.10;;
40162;SDS011;25881;47.462;19.304;2023-01-09T09:07:45;59.00;;;32.45;;
40162;SDS011;25881;47.462;19.304;2023-01-09T09:10:11;39.47;;;26.15;;
40162;SDS011;25881;47.462;19.304;2023-01-09T09:12:36;31.37;;;21.53;;
40162;SDS011;25881;47.462;19.304;2023-01-09T09:15:01;38.85;;;25.50;;
40162;SDS011;25881;47.462;19.304;2023-01-09T09:17:51;34.28;;;21.40;;
40162;SDS011;25881;47.462;19.304;2023-01-09T09:20:18;28.52;;;19.63;;
40162;SDS011;25881;47.462;19.304;2023-01-09T09:22:46;30.58;;;20.75;;
40162;SDS011;25881;47.462;19.304;2023-01-09T09:25:12;33.55;;;20.67;;
40162;SDS011;25881;47.462;19.304;2023-01-09T09:27:38;33.70;;;21.75;;
40162;SDS011;25881;47.462;19.304;2023-01-09T09:30:03;32.47;;;22.23;;
40162;SDS011;25881;47.462;19.304;2023-01-09T09:32:30;32.00;;;21.90;;
40162;SDS011;25881;47.462;19.304;2023-01-09T09:34:55;33.78;;;23.80;;
40162;SDS011;25881;47.462;19.304;2023-01-09T09:37:20;34.03;;;23.65;;
40162;SDS011;25881;47.462;19.304;2023-01-09T09:39:45;36.43;;;23.63;;
40162;SDS011;25881;47.462;19.304;2023-01-09T09:55:32;37.88;;;25.20;;
40162;SDS011;25881;47.462;19.304;2023-01-09T10:00:33;40.92;;;27.00;;
40162;SDS011;25881;47.462;19.304;2023-01-09T10:03:00;44.22;;;27.02;;
40162;SDS011;25881;47.462;19.304;2023-01-09T10:05:27;42.95;;;29.08;;
40162;SDS011;25881;47.462;19.304;2023-01-09T10:07:53;37.50;;;26.08;;
40162;SDS011;25881;47.462;19.304;2023-01-09T10:10:32;36.13;;;23.98;;
40162;SDS011;25881;47.462;19.304;2023-01-09T10:12:58;32.70;;;22.85;;
40162;SDS011;25881;47.462;19.304;2023-01-09T10:15:31;36.53;;;24.25;;
40162;SDS011;25881;47.462;19.304;2023-01-09T10:18:04;29.73;;;21.20;;
40162;SDS011;25881;47.462;19.304;2023-01-09T10:23:19;33.93;;;23.00;;
40162;SDS011;25881;47.462;19.304;2023-01-09T10:25:51;33.83;;;23.75;;
40162;SDS011;25881;47.462;19.304;2023-01-09T10:30:50;34.63;;;24.37;;
40162;SDS011;25881;47.462;19.304;2023-01-09T10:38:30;40.65;;;24.42;;
40162;SDS011;25881;47.462;19.304;2023-01-09T10:40:58;34.50;;;23.55;;
40162;SDS011;25881;47.462;19.304;2023-01-09T10:46:00;39.45;;;25.08;;
40162;SDS011;25881;47.462;19.304;2023-01-09T10:48:37;34.88;;;23.67;;
40162;SDS011;25881;47.462;19.304;2023-01-09T10:51:14;37.85;;;24.00;;
40162;SDS011;25881;47.462;19.304;2023-01-09T10:53:42;35.53;;;25.07;;
40162;SDS011;25881;47.462;19.304;2023-01-09T10:56:14;35.10;;;22.38;;
40162;SDS011;25881;47.462;19.304;2023-01-09T10:58:42;38.67;;;26.52;;
40162;SDS011;25881;47.462;19.304;2023-01-09T11:01:08;39.05;;;26.15;;
40162;SDS011;25881;47.462;19.304;2023-01-09T11:03:33;35.92;;;24.48;;
40162;SDS011;25881;47.462;19.304;2023-01-09T11:05:58;35.30;;;23.93;;
40162;SDS011;25881;47.462;19.304;2023-01-09T11:10:59;38.15;;;24.45;;
40162;SDS011;25881;47.462;19.304;2023-01-09T11:13:26;38.72;;;24.27;;
40162;SDS011;25881;47.462;19.304;2023-01-09T11:16:01;45.92;;;26.88;;
40162;SDS011;25881;47.462;19.304;2023-01-09T11:18:28;38.55;;;25.58;;
40162;SDS011;25881;47.462;19.304;2023-01-09T11:20:54;42.45;;;28.23;;
40162;SDS011;25881;47.462;19.304;2023-01-09T11:23:31;40.60;;;26.45;;
40162;SDS011;25881;47.462;19.304;2023-01-09T11:25:58;39.20;;;24.63;;
40162;SDS011;25881;47.462;19.304;2023-01-09T11:28:23;36.25;;;23.10;;
40162;SDS011;25881;47.462;19.304;2023-01-09T11:30:50;34.38;;;23.13;;
40162;SDS011;25881;47.462;19.304;2023-01-09T11:33:23;34.67;;;24.67;;
40162;SDS011;25881;47.462;19.304;2023-01-09T11:35:52;35.65;;;25.65;;
40162;SDS011;25881;47.462;19.304;2023-01-09T11:38:18;36.30;;;24.27;;
40162;SDS011;25881;47.462;19.304;2023-01-09T11:40:48;38.30;;;24.63;;
40162;SDS011;25881;47.462;19.304;2023-01-09T11:43:18;40.45;;;26.83;;
40162;SDS011;25881;47.462;19.304;2023-01-09T11:45:46;41.95;;;26.30;;
40162;SDS011;25881;47.462;19.304;2023-01-09T11:48:16;42.38;;;27.25;;
40162;SDS011;25881;47.462;19.304;2023-01-09T11:50:41;43.25;;;28.45;;
40162;SDS011;25881;47.462;19.304;2023-01-09T11:53:17;46.85;;;28.88;;
40162;SDS011;25881;47.462;19.304;2023-01-09T11:55:43;43.90;;;28.98;;
40162;SDS011;25881;47.462;19.304;2023-01-09T11:58:11;44.58;;;28.85;;
40162;SDS011;25881;47.462;19.304;2023-01-09T12:00:41;50.00;;;34.15;;
40162;SDS011;25881;47.462;19.304;2023-01-09T12:06:02;60.40;;;38.53;;
40162;SDS011;25881;47.462;19.304;2023-01-09T12:08:35;100.10;;;46.67;;
40162;SDS011;25881;47.462;19.304;2023-01-09T12:11:06;81.60;;;43.17;;
40162;SDS011;25881;47.462;19.304;2023-01-09T12:13:40;69.07;;;37.65;;
40162;SDS011;25881;47.462;19.304;2023-01-09T12:19:03;57.80;;;35.53;;
40162;SDS011;25881;47.462;19.304;2023-01-09T12:24:02;69.80;;;38.70;;
40162;SDS011;25881;47.462;19.304;2023-01-09T12:26:32;63.72;;;37.95;;
40162;SDS011;25881;47.462;19.304;2023-01-09T12:31:41;54.55;;;35.42;;
40162;SDS011;25881;47.462;19.304;2023-01-09T12:36:46;58.33;;;33.25;;
40162;SDS011;25881;47.462;19.304;2023-01-09T12:41:48;49.85;;;33.05;;
40162;SDS011;25881;47.462;19.304;2023-01-09T12:49:40;56.88;;;35.42;;
40162;SDS011;25881;47.462;19.304;2023-01-09T12:52:08;51.80;;;34.22;;
40162;SDS011;25881;47.462;19.304;2023-01-09T12:54:38;50.45;;;33.45;;
40162;SDS011;25881;47.462;19.304;2023-01-09T12:57:17;53.03;;;35.60;;
